Chapais, Canada
Current Conditions -  °F | °C
As of 4:25 PM on Saturday 22 Nov 2014 (Local Time) from CYNM Reporting Station
Light Snow Light Snow  
Wind Chill: 24°   Ceiling: 900
Heat Index: 32°   Visibility: 2.5mi
Dew Point: 30°   Wind: 10mph
Humidity: 93%   Direction: 230°SW
Pressure: 29.53"   Gusts: 17mph
Location:  49.78°N, 74.85°W
Report Text: CYNM 222125Z AUTO 23009G15KT 2 1/2SM -SN -FZUP OVC009 M00/M01 A2953 RMK ICG SLP018
Loading
Personal Weather Stations






























Interactive Weather Map New forecast layout! Learn more

10-Day Weather Forecast

Advertisements
Track Severe Weather on mobile